createdAt,value
2019-05-12T03:02:29.999Z,1.30
2019-05-12T03:04:59.547Z,1.50
2019-05-12T03:07:27.979Z,1.50
2019-05-12T03:09:56.372Z,1.60
2019-05-12T03:12:25.602Z,1.60
2019-05-12T03:14:54.518Z,1.60
2019-05-12T03:17:25.228Z,1.60
2019-05-12T03:19:55.645Z,1.70
2019-05-12T03:22:25.220Z,1.60
2019-05-12T03:25:07.984Z,1.70
2019-05-12T03:27:25.629Z,1.70
2019-05-12T03:29:55.289Z,1.80
2019-05-12T03:32:27.748Z,1.70
2019-05-12T03:34:57.811Z,1.70
2019-05-12T03:37:30.659Z,1.70
2019-05-12T03:39:54.528Z,1.70
2019-05-12T03:42:25.054Z,1.80
2019-05-12T03:44:54.753Z,1.70
2019-05-12T03:47:25.125Z,1.70
2019-05-12T03:49:54.410Z,1.80
2019-05-12T03:52:24.429Z,1.80
2019-05-12T03:54:56.086Z,1.80
2019-05-12T03:57:25.301Z,1.90
2019-05-12T03:59:54.308Z,2.00
2019-05-12T04:02:25.096Z,2.00
2019-05-12T04:04:55.466Z,2.20
2019-05-12T04:07:24.382Z,2.20
2019-05-12T04:09:54.653Z,2.20
2019-05-12T04:12:25.498Z,2.20
2019-05-12T04:14:55.073Z,2.30
2019-05-12T04:17:24.423Z,2.30
2019-05-12T04:19:54.980Z,2.30
2019-05-12T04:22:24.922Z,2.30
2019-05-12T04:24:55.152Z,2.20
2019-05-12T04:27:25.108Z,2.30
2019-05-12T04:29:54.746Z,2.30
2019-05-12T04:32:25.026Z,2.30
2019-05-12T04:34:55.057Z,2.40
2019-05-12T04:37:24.913Z,2.40
2019-05-12T04:39:55.388Z,2.40
2019-05-12T04:42:25.131Z,2.40
2019-05-12T04:44:55.271Z,2.40
2019-05-12T04:47:25.284Z,2.50
2019-05-12T04:49:54.679Z,2.50
2019-05-12T04:52:24.841Z,2.50
2019-05-12T04:54:55.269Z,2.50
2019-05-12T04:57:25.419Z,2.60
2019-05-12T04:59:54.284Z,2.70
2019-05-12T05:02:25.070Z,2.70
2019-05-12T05:04:54.688Z,2.70
2019-05-12T05:07:24.375Z,2.70
2019-05-12T05:09:54.935Z,2.90
2019-05-12T05:12:23.908Z,2.80
2019-05-12T05:14:54.753Z,2.70
2019-05-12T05:17:24.370Z,2.70
2019-05-12T05:19:53.428Z,2.80
2019-05-12T05:22:23.645Z,2.80
2019-05-12T05:24:53.584Z,2.80
2019-05-12T05:27:21.990Z,2.80
2019-05-12T05:29:50.350Z,2.80
2019-05-12T05:32:18.726Z,2.90
2019-05-12T05:34:55.784Z,2.80
2019-05-12T05:37:17.113Z,2.90
2019-05-12T05:39:49.532Z,2.90
2019-05-12T05:42:15.493Z,3.00
2019-05-12T05:44:43.860Z,3.00
2019-05-12T05:47:13.847Z,3.10
2019-05-12T05:49:43.441Z,3.30
2019-05-12T05:52:13.757Z,3.40
2019-05-12T05:54:43.885Z,3.40
2019-05-12T05:57:14.224Z,3.50
2019-05-12T05:59:42.655Z,3.70
2019-05-12T06:02:13.866Z,3.70
2019-05-12T06:04:45.473Z,3.70
2019-05-12T06:07:14.242Z,3.60
2019-05-12T06:09:43.259Z,3.60
2019-05-12T06:12:13.404Z,3.60
2019-05-12T06:14:46.012Z,3.60
2019-05-12T06:17:11.695Z,3.70
2019-05-12T06:19:40.074Z,3.80
2019-05-12T06:22:09.095Z,3.80
2019-05-12T06:24:38.462Z,3.90
2019-05-12T06:27:15.158Z,4.00
2019-05-12T06:29:36.837Z,4.10
2019-05-12T06:32:09.266Z,4.10
2019-05-12T06:34:35.234Z,4.30
2019-05-12T06:37:12.062Z,4.40
2019-05-12T06:39:34.349Z,4.40
2019-05-12T06:42:12.413Z,4.40
2019-05-12T06:44:33.480Z,4.40
2019-05-12T06:47:06.939Z,4.50
2019-05-12T06:49:33.699Z,4.60
2019-05-12T06:52:06.880Z,4.40
2019-05-12T06:54:33.562Z,4.30
2019-05-12T06:57:18.533Z,4.60
2019-05-12T06:59:33.887Z,4.90
2019-05-12T07:02:03.420Z,5.10
2019-05-12T07:04:33.968Z,5.30
2019-05-12T07:07:03.623Z,5.30
2019-05-12T07:09:33.244Z,5.60
2019-05-12T07:12:06.679Z,5.80
2019-05-12T07:14:34.364Z,6.00
2019-05-12T07:17:05.951Z,6.10
2019-05-12T07:19:33.894Z,6.00
2019-05-12T07:22:03.568Z,5.90
2019-05-12T07:24:34.153Z,6.20
2019-05-12T07:27:08.793Z,6.40
2019-05-12T07:29:34.221Z,6.30
2019-05-12T07:32:07.109Z,6.30
2019-05-12T07:34:33.393Z,6.50
2019-05-12T07:37:04.252Z,6.60
2019-05-12T07:39:36.966Z,6.50
2019-05-12T07:42:03.640Z,6.30
2019-05-12T07:44:39.814Z,6.50
2019-05-12T07:47:03.602Z,6.50
2019-05-12T07:49:36.920Z,5.90
2019-05-12T07:52:03.671Z,6.00
2019-05-12T07:54:37.256Z,5.80
2019-05-12T07:57:05.397Z,6.10
2019-05-12T07:59:38.847Z,6.60
2019-05-12T08:02:03.942Z,6.80
2019-05-12T08:04:39.660Z,6.70
2019-05-12T08:07:03.925Z,6.40
2019-05-12T08:09:36.530Z,6.20
2019-05-12T08:12:09.604Z,5.90
2019-05-12T08:14:35.146Z,6.40
2019-05-12T08:17:11.241Z,6.30
2019-05-12T08:19:33.865Z,5.90
2019-05-12T08:22:04.324Z,6.00
2019-05-12T08:24:36.922Z,5.90
2019-05-12T08:27:06.253Z,6.10
2019-05-12T08:29:34.234Z,6.00
2019-05-12T08:32:03.809Z,6.00
2019-05-12T08:34:34.145Z,6.20
2019-05-12T08:37:04.179Z,6.30
2019-05-12T08:39:33.700Z,6.20
2019-05-12T08:42:04.074Z,5.90
2019-05-12T08:44:40.210Z,6.00
2019-05-12T08:47:03.978Z,5.70
2019-05-12T08:49:49.508Z,5.50
2019-05-12T08:52:03.876Z,5.60
2019-05-12T08:54:33.635Z,5.80
2019-05-12T08:57:03.923Z,5.70
2019-05-12T08:59:34.170Z,5.90
2019-05-12T09:02:08.902Z,6.00
2019-05-12T09:04:33.890Z,6.30
2019-05-12T09:07:04.405Z,6.70
2019-05-12T09:09:33.720Z,7.00
2019-05-12T09:12:03.586Z,6.90
2019-05-12T09:14:35.550Z,6.90
2019-05-12T09:17:06.571Z,6.90
2019-05-12T09:19:33.198Z,7.00
2019-05-12T09:22:05.429Z,7.30
2019-05-12T09:24:33.368Z,7.60
2019-05-12T09:27:06.970Z,7.80
2019-05-12T09:29:34.035Z,7.70
2019-05-12T09:32:05.372Z,7.30
2019-05-12T09:34:33.595Z,7.40
2019-05-12T09:37:03.848Z,7.70
2019-05-12T09:39:34.089Z,7.60
2019-05-12T09:42:03.782Z,8.10
2019-05-12T09:44:33.894Z,8.50
2019-05-12T09:47:03.934Z,8.00
2019-05-12T09:49:39.038Z,7.50
2019-05-12T09:52:03.655Z,7.60
2019-05-12T09:54:35.260Z,7.40
2019-05-12T09:57:04.252Z,6.90
2019-05-12T09:59:33.631Z,7.00
2019-05-12T10:02:03.661Z,7.20
2019-05-12T10:04:33.077Z,7.50
2019-05-12T10:07:03.642Z,7.40
2019-05-12T10:09:33.480Z,7.40
2019-05-12T10:12:03.274Z,7.90
2019-05-12T10:14:31.631Z,8.10
2019-05-12T10:16:59.983Z,8.40
2019-05-12T10:19:28.362Z,8.60
2019-05-12T10:21:59.479Z,8.80
2019-05-12T10:24:26.753Z,8.70
2019-05-12T10:26:55.109Z,8.50
2019-05-12T10:29:24.353Z,8.30
2019-05-12T10:31:53.605Z,8.00
2019-05-12T10:34:23.918Z,8.10
2019-05-12T10:36:53.794Z,8.10
2019-05-12T10:39:24.474Z,8.50
2019-05-12T10:41:53.981Z,8.10
2019-05-12T10:44:22.373Z,8.40
2019-05-12T10:46:53.768Z,8.40
2019-05-12T10:49:23.355Z,8.50
2019-05-12T10:51:53.806Z,9.00
2019-05-12T10:54:23.983Z,8.80
2019-05-12T10:56:54.245Z,9.00
2019-05-12T10:59:32.319Z,8.20
2019-05-12T11:01:53.955Z,8.20
2019-05-12T11:04:23.414Z,8.60
2019-05-12T11:06:53.811Z,9.20
2019-05-12T11:09:29.418Z,9.60
2019-05-12T11:11:53.968Z,9.20
2019-05-12T11:14:26.507Z,8.90
2019-05-12T11:16:54.232Z,8.50
2019-05-12T11:19:22.663Z,8.70
2019-05-12T11:21:53.442Z,8.90
2019-05-12T11:24:21.327Z,8.80
2019-05-12T11:26:49.712Z,8.80
2019-05-12T11:29:18.068Z,8.80
2019-05-12T11:31:46.450Z,8.60
2019-05-12T11:34:14.806Z,8.60
2019-05-12T11:36:43.802Z,8.70
2019-05-12T11:39:14.120Z,9.10
2019-05-12T11:41:44.248Z,9.70
2019-05-12T11:44:13.208Z,9.90
2019-05-12T11:46:44.173Z,9.70
2019-05-12T11:49:13.641Z,9.30
2019-05-12T11:51:41.744Z,9.20
2019-05-12T11:54:10.905Z,9.70
2019-05-12T11:56:40.244Z,9.80
2019-05-12T11:59:09.798Z,9.50
2019-05-12T12:01:39.585Z,9.00
2019-05-12T12:04:08.196Z,9.10
2019-05-12T12:06:36.583Z,9.30
2019-05-12T12:09:09.313Z,9.30
2019-05-12T12:11:37.011Z,9.50
2019-05-12T12:14:08.835Z,8.90
2019-05-12T12:16:35.409Z,8.50
2019-05-12T12:19:05.880Z,8.50
2019-05-12T12:21:35.064Z,8.80
2019-05-12T12:24:03.979Z,9.30
2019-05-12T12:26:34.910Z,9.40
2019-05-12T12:29:03.354Z,10.00
2019-05-12T12:31:37.228Z,9.70
2019-05-12T12:34:03.506Z,9.30
2019-05-12T12:36:34.048Z,9.30
2019-05-12T12:39:04.044Z,9.50
2019-05-12T12:41:34.050Z,9.90
2019-05-12T12:44:04.448Z,10.20
2019-05-12T12:46:33.806Z,10.60
2019-05-12T12:49:08.575Z,10.80
2019-05-12T12:51:34.136Z,10.50
2019-05-12T12:54:03.269Z,10.90
2019-05-12T12:56:33.963Z,10.70
2019-05-12T12:59:09.901Z,10.10
2019-05-12T13:01:33.545Z,10.30
2019-05-12T13:04:04.754Z,10.20
2019-05-12T13:06:34.394Z,10.00
2019-05-12T13:09:07.840Z,10.30
2019-05-12T13:11:34.814Z,10.30
2019-05-12T13:14:03.980Z,10.50
2019-05-12T13:16:34.203Z,10.20
2019-05-12T13:19:03.776Z,9.80
2019-05-12T13:21:33.549Z,9.90
2019-05-12T13:24:03.593Z,10.80
2019-05-12T13:26:32.165Z,10.90
2019-05-12T13:29:00.550Z,10.30
2019-05-12T13:31:28.915Z,10.80
2019-05-12T13:33:57.303Z,10.70
2019-05-12T13:36:29.472Z,10.60
2019-05-12T13:38:55.707Z,10.90
2019-05-12T13:41:24.077Z,10.80
2019-05-12T13:43:56.126Z,10.90
2019-05-12T13:46:23.880Z,11.00
2019-05-12T13:48:57.628Z,11.60
2019-05-12T13:51:24.134Z,11.50
2019-05-12T13:53:52.489Z,10.60
2019-05-12T13:56:27.459Z,10.40
2019-05-12T13:58:50.853Z,10.10
2019-05-12T14:01:20.845Z,11.20
2019-05-12T14:03:50.859Z,11.20
2019-05-12T14:06:23.218Z,10.70
2019-05-12T14:08:49.522Z,10.40
2019-05-12T14:11:18.927Z,10.20
2019-05-12T14:13:47.502Z,10.10
2019-05-12T14:16:15.891Z,9.70
2019-05-12T14:18:44.282Z,10.20
2019-05-12T14:21:13.995Z,10.30
2019-05-12T14:23:43.606Z,10.70
2019-05-12T14:26:13.693Z,11.20
2019-05-12T14:28:45.586Z,11.70
2019-05-12T14:31:24.469Z,12.20
2019-05-12T14:33:44.223Z,12.80
2019-05-12T14:36:15.801Z,12.00
2019-05-12T14:38:42.402Z,11.50
2019-05-12T14:41:12.357Z,10.90
2019-05-12T14:43:40.803Z,10.40
2019-05-12T14:46:10.514Z,10.40
2019-05-12T14:48:40.302Z,10.40
2019-05-12T14:51:09.065Z,10.40
2019-05-12T14:53:38.257Z,10.10
2019-05-12T14:56:07.463Z,10.50
2019-05-12T14:58:35.828Z,10.40
2019-05-12T15:01:04.253Z,10.70
2019-05-12T15:03:34.253Z,13.50
2019-05-12T15:06:07.415Z,16.00
2019-05-12T15:08:37.190Z,18.50
2019-05-12T15:11:04.127Z,21.00
2019-05-12T15:13:34.331Z,23.40
2019-05-12T15:16:02.502Z,19.00
2019-05-12T15:18:30.876Z,17.10
2019-05-12T15:20:59.166Z,12.90
2019-05-12T15:23:32.680Z,15.40
2019-05-12T15:25:57.575Z,18.40
2019-05-12T15:28:25.976Z,21.00
2019-05-12T15:30:54.386Z,21.40
2019-05-12T15:33:24.317Z,19.10
2019-05-12T15:35:54.665Z,16.80
2019-05-12T15:38:23.918Z,15.20
2019-05-12T15:40:53.816Z,13.90
2019-05-12T15:43:24.351Z,13.00
2019-05-12T15:45:55.312Z,11.70
2019-05-12T15:48:25.582Z,12.10
2019-05-12T15:50:54.037Z,11.60
2019-05-12T15:53:26.653Z,11.00
2019-05-12T15:55:54.328Z,11.30
2019-05-12T15:58:24.746Z,11.70
2019-05-12T16:00:54.480Z,11.80
2019-05-12T16:03:23.584Z,11.70
2019-05-12T16:05:53.450Z,11.80
2019-05-12T16:08:24.296Z,12.10
2019-05-12T16:10:53.908Z,11.80
2019-05-12T16:13:24.142Z,11.80
2019-05-12T16:15:56.010Z,11.20
2019-05-12T16:18:23.507Z,11.40
2019-05-12T16:20:53.599Z,11.30
2019-05-12T16:23:27.977Z,11.00
2019-05-12T16:25:54.124Z,11.10
2019-05-12T16:28:24.323Z,11.00
2019-05-12T16:30:53.619Z,11.10
2019-05-12T16:33:22.194Z,11.10
2019-05-12T16:35:50.554Z,10.50
2019-05-12T16:38:19.986Z,10.20
2019-05-12T16:40:49.973Z,10.50
2019-05-12T16:43:18.376Z,10.30
2019-05-12T16:45:46.765Z,10.20
2019-05-12T16:48:29.413Z,10.10
2019-05-12T16:50:45.164Z,11.10
2019-05-12T16:53:21.978Z,11.70
2019-05-12T16:55:46.522Z,12.50
2019-05-12T16:58:13.682Z,12.50
2019-05-12T17:00:45.288Z,14.20
2019-05-12T17:03:14.257Z,13.10
2019-05-12T17:05:42.135Z,14.40
2019-05-12T17:08:10.503Z,16.80
2019-05-12T17:10:38.895Z,14.90
2019-05-12T17:13:13.208Z,14.70
2019-05-12T17:15:37.355Z,13.40
2019-05-12T17:18:05.714Z,13.30
2019-05-12T17:20:34.112Z,12.70
2019-05-12T17:23:03.401Z,12.90
2019-05-12T17:25:34.247Z,12.40
2019-05-12T17:28:03.538Z,11.90
2019-05-12T17:30:34.234Z,11.50
2019-05-12T17:33:05.025Z,10.70
2019-05-12T17:35:34.931Z,10.20
2019-05-12T17:38:04.076Z,10.50
2019-05-12T17:40:33.915Z,10.80
2019-05-12T17:43:06.784Z,10.20
2019-05-12T17:45:32.219Z,10.10
2019-05-12T17:48:05.967Z,10.00
2019-05-12T17:50:30.615Z,9.90
2019-05-12T17:53:00.551Z,9.90
2019-05-12T17:55:29.066Z,9.70
2019-05-12T17:57:57.957Z,9.70
2019-05-12T18:00:26.486Z,9.60
2019-05-12T18:03:13.204Z,9.50
2019-05-12T18:05:24.917Z,9.30
2019-05-12T18:07:55.314Z,9.00
2019-05-12T18:10:23.906Z,8.70
2019-05-12T18:12:53.424Z,8.70
2019-05-12T18:15:23.417Z,8.60
2019-05-12T18:17:53.298Z,8.60
2019-05-12T18:20:23.765Z,8.30
2019-05-12T18:22:53.537Z,8.50
2019-05-12T18:25:30.469Z,8.50
2019-05-12T18:27:54.210Z,8.20
2019-05-12T18:30:23.784Z,8.20
2019-05-12T18:32:54.975Z,8.10
2019-05-12T18:35:22.157Z,8.00
2019-05-12T18:37:50.538Z,7.90
2019-05-12T18:40:18.904Z,7.80
2019-05-12T18:42:47.292Z,7.70
2019-05-12T18:45:18.259Z,7.70
2019-05-12T18:47:46.842Z,7.60
2019-05-12T18:50:20.638Z,7.50
2019-05-12T18:52:48.076Z,7.50
2019-05-12T18:55:16.703Z,7.30
2019-05-12T18:57:49.790Z,7.20
2019-05-12T19:00:19.395Z,7.20
2019-05-12T19:02:51.032Z,7.20
2019-05-12T19:05:21.893Z,7.00
2019-05-12T19:07:48.281Z,7.00
2019-05-12T19:10:16.635Z,6.80
2019-05-12T19:12:45.040Z,6.80
2019-05-12T19:15:19.538Z,6.80
2019-05-12T19:17:43.737Z,6.60
2019-05-12T19:20:13.607Z,6.50
2019-05-12T19:22:48.351Z,6.40
2019-05-12T19:25:14.704Z,6.30
2019-05-12T19:27:45.718Z,6.20
2019-05-12T19:30:13.822Z,6.20
2019-05-12T19:32:44.963Z,6.10
2019-05-12T19:35:18.005Z,6.00
2019-05-12T19:37:45.263Z,6.10
2019-05-12T19:40:17.461Z,5.90
2019-05-12T19:42:43.396Z,5.80
2019-05-12T19:45:16.372Z,5.80
2019-05-12T19:47:44.129Z,5.70
2019-05-12T19:50:15.766Z,5.70
2019-05-12T19:52:42.091Z,5.60
2019-05-12T19:55:14.127Z,5.50
2019-05-12T19:57:44.074Z,5.40
2019-05-12T20:00:13.855Z,5.30
2019-05-12T20:02:42.185Z,5.30
2019-05-12T20:05:14.057Z,5.20
2019-05-12T20:07:40.562Z,5.00
2019-05-12T20:10:12.468Z,5.10
2019-05-12T20:12:38.950Z,5.00
2019-05-12T20:15:07.339Z,4.90
2019-05-12T20:17:35.689Z,4.90
2019-05-12T20:20:04.970Z,4.80
2019-05-12T20:22:33.563Z,4.80
2019-05-12T20:25:04.025Z,4.70
2019-05-12T20:27:34.315Z,4.70
2019-05-12T20:30:08.830Z,4.60
2019-05-12T20:32:34.300Z,4.60
2019-05-12T20:35:04.102Z,4.60
2019-05-12T20:37:33.723Z,4.60
2019-05-12T20:40:05.273Z,4.50
2019-05-12T20:42:42.036Z,4.50
2019-05-12T20:45:06.089Z,4.40
2019-05-12T20:47:39.212Z,4.30
2019-05-12T20:50:06.126Z,4.30
2019-05-12T20:52:39.240Z,4.30
2019-05-12T20:55:04.779Z,4.20
2019-05-12T20:57:34.513Z,4.20
2019-05-12T21:00:08.084Z,4.20
2019-05-12T21:02:34.774Z,4.10
2019-05-12T21:05:14.491Z,4.00
2019-05-12T21:07:37.491Z,3.90
2019-05-12T21:10:06.624Z,4.00
2019-05-12T21:12:40.189Z,4.10
2019-05-12T21:15:16.316Z,4.00
2019-05-12T21:17:42.637Z,3.90
2019-05-12T21:20:11.788Z,3.90
2019-05-12T21:22:38.937Z,3.90
2019-05-12T21:25:10.490Z,3.80
2019-05-12T21:27:37.300Z,3.90
2019-05-12T21:30:11.543Z,3.90
2019-05-12T21:32:36.267Z,4.10
2019-05-12T21:35:18.202Z,4.00
2019-05-12T21:37:38.672Z,3.90
2019-05-12T21:40:06.392Z,4.10
2019-05-12T21:42:34.700Z,4.00
2019-05-12T21:45:04.611Z,4.10
2019-05-12T21:47:33.997Z,4.10
2019-05-12T21:50:05.094Z,4.20
2019-05-12T21:52:39.071Z,4.10
2019-05-12T21:55:06.432Z,4.10
2019-05-12T21:57:34.713Z,4.30
2019-05-12T22:00:04.987Z,4.50
2019-05-12T22:02:34.934Z,4.50
2019-05-12T22:05:04.203Z,4.60
2019-05-12T22:07:38.079Z,4.80
2019-05-12T22:10:04.826Z,4.90
2019-05-12T22:12:33.267Z,5.00
2019-05-12T22:15:03.754Z,5.10
2019-05-12T22:17:33.428Z,5.20
2019-05-12T22:20:08.484Z,5.20
2019-05-12T22:22:33.208Z,5.20
2019-05-12T22:25:01.802Z,5.20
2019-05-12T22:27:30.975Z,5.10
2019-05-12T22:29:59.453Z,5.10
2019-05-12T22:32:29.676Z,5.00
2019-05-12T22:34:57.843Z,5.00
2019-05-12T22:37:29.381Z,5.10
2019-05-12T22:39:56.228Z,5.30
2019-05-12T22:42:24.607Z,5.20
2019-05-12T22:45:01.227Z,5.20
2019-05-12T22:47:24.011Z,5.30
2019-05-12T22:49:56.959Z,5.40
2019-05-12T22:52:23.855Z,5.30
2019-05-12T22:54:53.800Z,5.20
2019-05-12T22:57:24.244Z,5.10
2019-05-12T22:59:53.214Z,4.90
2019-05-12T23:02:25.434Z,4.90
2019-05-12T23:04:51.636Z,4.80
2019-05-12T23:07:27.741Z,4.70
2019-05-12T23:09:50.030Z,4.70
2019-05-12T23:12:20.054Z,4.60
2019-05-12T23:14:54.189Z,4.60
2019-05-12T23:17:18.678Z,4.50
2019-05-12T23:19:51.455Z,4.40
2019-05-12T23:22:17.337Z,4.40
2019-05-12T23:24:45.699Z,4.40
2019-05-12T23:27:18.706Z,4.20
2019-05-12T23:29:44.485Z,4.20
2019-05-12T23:32:15.001Z,4.10
2019-05-12T23:34:44.906Z,4.00
2019-05-12T23:37:14.146Z,3.90
2019-05-12T23:39:44.265Z,3.80
2019-05-12T23:42:13.583Z,3.80
2019-05-12T23:44:44.204Z,3.70
2019-05-12T23:47:12.248Z,3.70
2019-05-12T23:49:40.626Z,3.70
2019-05-12T23:52:08.987Z,3.70
2019-05-12T23:54:37.377Z,3.70
2019-05-12T23:57:05.726Z,3.60
2019-05-12T23:59:34.111Z,3.50
